Dades de l'estació automàtica Malgrat de Mar
Resum diari
20:00 TU| Temperatura mitjana | 17.8 °C | |
|---|---|---|
| Temperatura màxima | 21.6 °C | 12:59 TU |
| Temperatura mínima | 12.1 °C | 3:11 TU |
| Humitat relativa mitjana | 83% | |
| Precipitació acumulada | 0.0 mm | |
| Ratxa màxima del vent (10 m) | 36.7 km/h - 217º | 8:40 TU |
| Pressió atmosfèrica mitjana | 1011.3 hPa | |
| Irradiació solar global | 28.7 MJ/m2 | |
El tram horari està expressat en Temps Universal (TU). Cal sumar una hora en horari d'hivern i dues en horari d'estiu per passar a l'hora oficial.
Malgrat de Mar
| Municipi | Malgrat de Mar |
|---|---|
| Comarca | Maresme |
| Altitud | 3 m |
| Data alta | 04.05.2005 |
| Estat actual | Operativa |
| Període TU |
TM °C |
TX °C |
TN °C |
HRM % |
PPT mm |
VVM (10 m) km/h |
DVM (10 m) graus |
VVX (10 m) km/h |
PM hPa |
RS W/m2 |
|---|---|---|---|---|---|---|---|---|---|---|
| 00:00 - 00:30 | 14.1 | 14.1 | 14.0 | 97 | 0.0 | 10.4 | 346 | 15.8 | 1013.2 | 0 |
| 00:30 - 01:00 | 13.8 | 13.9 | 13.5 | 98 | 0.0 | 7.2 | 344 | 13.7 | 1012.6 | 0 |
| 01:00 - 01:30 | 13.5 | 13.6 | 13.1 | 98 | 0.0 | 4.7 | 350 | 9.4 | 1012.4 | 0 |
| 01:30 - 02:00 | 13.2 | 13.4 | 12.9 | 98 | 0.0 | 6.5 | 349 | 11.9 | 1012.3 | 0 |
| 02:00 - 02:30 | 12.8 | 13.0 | 12.6 | 99 | 0.0 | 6.1 | 349 | 7.9 | 1012.3 | 0 |
| 02:30 - 03:00 | 12.5 | 12.7 | 12.2 | 99 | 0.0 | 4.7 | 340 | 7.6 | 1012.2 | 0 |
| 03:00 - 03:30 | 12.5 | 13.3 | 12.1 | 100 | 0.0 | 4.0 | 265 | 11.2 | 1012.1 | 0 |
| 03:30 - 04:00 | 13.7 | 14.0 | 13.3 | 99 | 0.0 | 6.8 | 220 | 13.7 | 1011.8 | 0 |
| 04:00 - 04:30 | 13.7 | 13.9 | 13.4 | 98 | 0.0 | 4.7 | 228 | 6.8 | 1011.8 | 0 |
| 04:30 - 05:00 | 14.1 | 14.2 | 13.7 | 94 | 0.0 | 5.0 | 226 | 10.8 | 1011.7 | 7 |
| 05:00 - 05:30 | 14.2 | 14.3 | 14.1 | 88 | 0.0 | 3.2 | 265 | 8.3 | 1011.6 | 24 |
| 05:30 - 06:00 | 14.5 | 14.7 | 14.3 | 88 | 0.0 | 1.4 | 288 | 6.5 | 1011.6 | 137 |
| 06:00 - 06:30 | 15.6 | 16.3 | 14.5 | 85 | 0.0 | 8.6 | 212 | 21.6 | 1011.6 | 248 |
| 06:30 - 07:00 | 16.7 | 17.0 | 16.3 | 82 | 0.0 | 11.5 | 230 | 24.8 | 1011.6 | 356 |
| 07:00 - 07:30 | 17.2 | 17.6 | 16.8 | 78 | 0.0 | 11.2 | 249 | 27.0 | 1011.7 | 461 |
| 07:30 - 08:00 | 18.1 | 18.4 | 17.6 | 75 | 0.0 | 15.8 | 231 | 33.1 | 1011.7 | 558 |
| 08:00 - 08:30 | 18.7 | 18.9 | 18.4 | 74 | 0.0 | 17.6 | 227 | 32.8 | 1011.7 | 647 |
| 08:30 - 09:00 | 18.9 | 19.0 | 18.5 | 76 | 0.0 | 18.4 | 226 | 36.7 | 1011.8 | 728 |
| 09:00 - 09:30 | 19.2 | 19.6 | 18.9 | 77 | 0.0 | 18.7 | 226 | 36.7 | 1011.9 | 800 |
| 09:30 - 10:00 | 19.8 | 20.0 | 19.6 | 76 | 0.0 | 17.6 | 225 | 35.6 | 1011.9 | 861 |
| 10:00 - 10:30 | 20.2 | 20.6 | 19.8 | 77 | 0.0 | 18.0 | 226 | 34.2 | 1011.9 | 909 |
| 10:30 - 11:00 | 20.6 | 20.8 | 20.3 | 76 | 0.0 | 17.3 | 226 | 33.8 | 1011.9 | 941 |
| 11:00 - 11:30 | 20.7 | 20.9 | 20.4 | 76 | 0.0 | 18.7 | 228 | 34.6 | 1011.9 | 910 |
| 11:30 - 12:00 | 21.0 | 21.2 | 20.8 | 75 | 0.0 | 17.6 | 231 | 32.4 | 1011.9 | 938 |
| 12:00 - 12:30 | 21.0 | 21.4 | 20.6 | 75 | 0.0 | 15.8 | 231 | 31.3 | 1011.5 | 861 |
| 12:30 - 13:00 | 21.2 | 21.6 | 20.6 | 75 | 0.0 | 18.4 | 231 | 33.8 | 1011.3 | 951 |
| 13:00 - 13:30 | 21.5 | 21.6 | 21.3 | 74 | 0.0 | 17.6 | 231 | 34.6 | 1011.1 | 906 |
| 13:30 - 14:00 | 21.3 | 21.5 | 21.0 | 75 | 0.0 | 18.7 | 230 | 32.0 | 1010.8 | 843 |
| 14:00 - 14:30 | 21.3 | 21.6 | 21.2 | 72 | 0.0 | 17.3 | 231 | 31.3 | 1010.4 | 790 |
| 14:30 - 15:00 | 21.3 | 21.5 | 21.2 | 72 | 0.0 | 18.0 | 231 | 31.0 | 1010.0 | 722 |
| 15:00 - 15:30 | 21.3 | 21.5 | 21.0 | 72 | 0.0 | 17.3 | 231 | 30.6 | 1009.8 | 640 |
| 15:30 - 16:00 | 20.8 | 20.9 | 20.6 | 74 | 0.0 | 19.1 | 229 | 32.4 | 1009.8 | 554 |
| 16:00 - 16:30 | 20.5 | 20.7 | 20.4 | 74 | 0.0 | 16.9 | 228 | 30.6 | 1009.8 | 453 |
| 16:30 - 17:00 | 20.2 | 20.4 | 20.0 | 77 | 0.0 | 16.6 | 229 | 28.4 | 1009.8 | 349 |
| 17:00 - 17:30 | 19.8 | 20.0 | 19.7 | 75 | 0.0 | 16.2 | 234 | 30.2 | 1009.8 | 247 |
| 17:30 - 18:00 | 19.2 | 19.6 | 18.8 | 79 | 0.0 | 13.7 | 231 | 25.2 | 1009.9 | 89 |
| 18:00 - 18:30 | 18.6 | 18.7 | 18.5 | 83 | 0.0 | 14.0 | 232 | 31.7 | 1010.3 | 24 |
| 18:30 - 19:00 | 18.4 | 18.5 | 18.3 | 84 | 0.0 | 12.6 | 234 | 26.3 | 1010.6 | 6 |
| 19:00 - 19:30 | 18.3 | 18.3 | 18.2 | 84 | 0.0 | 12.2 | 236 | 23.0 | 1010.8 | 0 |
| 19:30 - 20:00 | 18.3 | 18.5 | 18.2 | 82 | 0.0 | 10.4 | 245 | 24.8 | 1011.0 | 0 |
| 20:00 - 20:30 | 18.4 | 18.4 | 18.4 | 81 | 0.0 | 11.9 | 233 | 24.1 | 1011.1 | 0 |
Les dades en taronja només han passat un control de qualitat automàtic. Resta pendent la seva validació definitiva.